Time;durP1;ratioP1;P1;durP2;ratioP2;P2;SDS_P1;SDS_P2;PMS_P1;PMS_P2;Temp;Humidity;BMP_temperature;BMP_pressure;BME280_temperature;BME280_humidity;BME280_pressure;Samples;Min_cycle;Max_cycle;Signal;HPM_P1;HPM_P2
2021/09/07 00:02:26;;;;;;;3.80;1.30;;;;;17.00;100635.00;;;;5068507;28;20063;-77
2021/09/07 00:04:55;;;;;;;3.30;1.38;;;;;17.10;100648.00;;;;5069777;28;20063;-78
2021/09/07 00:07:24;;;;;;;4.65;1.58;;;;;17.10;100610.00;;;;5069487;28;20052;-79
2021/09/07 00:09:53;;;;;;;5.15;1.60;;;;;17.10;100648.00;;;;5069133;28;20044;-77
2021/09/07 00:12:22;;;;;;;4.38;1.27;;;;;17.10;100659.00;;;;5069285;28;20049;-79
2021/09/07 00:14:51;;;;;;;5.80;1.70;;;;;17.10;100666.00;;;;5068707;28;20045;-77
2021/09/07 00:17:20;;;;;;;8.20;1.20;;;;;17.10;100686.00;;;;5069036;28;20078;-78
2021/09/07 00:19:49;;;;;;;1.70;1.02;;;;;17.10;100671.00;;;;5068857;28;20420;-77
2021/09/07 00:22:18;;;;;;;4.28;1.27;;;;;17.00;100684.00;;;;5069086;28;20045;-76
2021/09/07 00:24:47;;;;;;;6.28;2.92;;;;;16.90;100665.00;;;;5068654;28;20060;-76
2021/09/07 00:27:16;;;;;;;5.40;1.42;;;;;17.00;100675.00;;;;5068789;28;20079;-76
2021/09/07 00:29:45;;;;;;;6.18;1.70;;;;;17.00;100665.00;;;;5068717;28;20055;-78
2021/09/07 00:32:14;;;;;;;1.83;0.98;;;;;17.00;100670.00;;;;5067998;28;20052;-76
2021/09/07 00:34:43;;;;;;;4.40;1.50;;;;;17.00;100680.00;;;;5068992;28;20044;-78
2021/09/07 00:37:12;;;;;;;3.33;1.20;;;;;17.00;100686.00;;;;5068552;28;20055;-78
2021/09/07 00:39:41;;;;;;;4.70;1.50;;;;;16.90;100685.00;;;;5068874;28;20058;-77
2021/09/07 00:42:10;;;;;;;2.58;1.42;;;;;16.90;100674.00;;;;5068758;28;20055;-77
2021/09/07 00:44:39;;;;;;;3.78;1.30;;;;;16.80;100680.00;;;;5068625;28;20123;-77
2021/09/07 00:47:08;;;;;;;3.22;1.33;;;;;16.80;100674.00;;;;5068640;28;20056;-76
2021/09/07 00:49:37;;;;;;;4.10;1.42;;;;;16.90;100681.00;;;;5067443;28;20048;-77
2021/09/07 00:52:07;;;;;;;3.63;1.63;;;;;16.90;100660.00;;;;5068170;28;20041;-77
2021/09/07 00:54:38;;;;;;;2.58;1.63;;;;;17.00;100686.00;;;;5068461;28;20606;-78
2021/09/07 00:57:09;;;;;;;6.28;1.85;;;;;17.00;100702.00;;;;5068042;28;20435;-78
2021/09/07 00:59:38;;;;;;;2.45;1.60;;;;;17.00;100689.00;;;;5067588;28;20067;-78
2021/09/07 01:02:08;;;;;;;4.07;1.48;;;;;17.00;100695.00;;;;5067881;28;20061;-77
2021/09/07 01:04:37;;;;;;;5.03;1.30;;;;;17.00;100692.00;;;;5067310;28;20041;-76
2021/09/07 01:07:06;;;;;;;2.17;1.15;;;;;17.10;100703.00;;;;5068420;28;20137;-78
2021/09/07 01:09:36;;;;;;;1.25;1.08;;;;;17.20;100728.00;;;;5068224;28;20044;-76
2021/09/07 01:12:09;;;;;;;3.85;1.42;;;;;17.10;100721.00;;;;5067806;28;20149;-77
2021/09/07 01:14:39;;;;;;;1.83;1.23;;;;;17.00;100721.00;;;;5068203;28;20075;-78
2021/09/07 01:17:16;;;;;;;2.83;1.27;;;;;17.00;100706.00;;;;5067994;28;20663;-77
2021/09/07 01:19:47;;;;;;;2.78;1.40;;;;;17.00;100725.00;;;;5067888;28;20053;-77
2021/09/07 01:22:18;;;;;;;3.00;1.20;;;;;17.00;100719.00;;;;5067802;28;20079;-77
2021/09/07 01:24:48;;;;;;;3.33;1.73;;;;;16.90;100729.00;;;;5068328;28;20059;-76
2021/09/07 01:27:21;;;;;;;4.17;1.37;;;;;17.00;100709.00;;;;5067828;28;20052;-77
2021/09/07 01:29:50;;;;;;;1.52;1.17;;;;;17.00;100690.00;;;;5067766;28;20809;-76
2021/09/07 01:32:22;;;;;;;4.65;1.17;;;;;17.00;100708.00;;;;5067618;28;20049;-76
2021/09/07 01:34:50;;;;;;;3.38;1.25;;;;;17.00;100702.00;;;;5067371;28;20048;-76
2021/09/07 01:37:19;;;;;;;3.83;1.30;;;;;17.10;100735.00;;;;5067847;28;20167;-78
2021/09/07 01:39:48;;;;;;;2.33;1.30;;;;;17.20;100732.00;;;;5067531;28;20459;-76
2021/09/07 01:42:17;;;;;;;1.88;1.10;;;;;17.30;100726.00;;;;5067173;28;20055;-77
2021/09/07 01:44:46;;;;;;;5.38;1.25;;;;;17.30;100718.00;;;;5067564;28;20063;-77
2021/09/07 01:47:15;;;;;;;3.13;1.13;;;;;17.30;100748.00;;;;5067124;28;20052;-77
2021/09/07 01:49:44;;;;;;;3.05;1.20;;;;;17.30;100743.00;;;;5067166;28;20435;-77
2021/09/07 01:52:15;;;;;;;2.55;1.20;;;;;17.20;100759.00;;;;5066996;28;20445;-77
2021/09/07 01:54:48;;;;;;;3.70;1.40;;;;;17.20;100766.00;;;;5066928;28;20059;-76
2021/09/07 01:57:18;;;;;;;6.68;1.58;;;;;17.00;100769.00;;;;5066144;28;20298;-78
2021/09/07 01:59:47;;;;;;;3.00;1.42;;;;;17.00;100769.00;;;;5067442;28;20052;-77
2021/09/07 02:02:16;;;;;;;2.75;1.27;;;;;17.00;100785.00;;;;5067865;28;20168;-77
2021/09/07 02:04:46;;;;;;;5.28;1.60;;;;;17.00;100782.00;;;;5067096;28;20045;-78
2021/09/07 02:07:15;;;;;;;4.20;1.50;;;;;17.00;100788.00;;;;5066811;28;20052;-77
2021/09/07 02:09:44;;;;;;;2.40;1.25;;;;;17.00;100811.00;;;;5066775;28;20155;-77
2021/09/07 02:12:13;;;;;;;2.47;1.45;;;;;17.00;100796.00;;;;5067243;28;20048;-78
2021/09/07 02:14:42;;;;;;;1.88;1.20;;;;;17.00;100816.00;;;;5066851;28;20179;-77
2021/09/07 02:17:11;;;;;;;2.60;1.13;;;;;16.90;100812.00;;;;5066787;28;20044;-77
2021/09/07 02:19:40;;;;;;;3.13;1.30;;;;;16.80;100813.00;;;;5066810;28;20050;-77
2021/09/07 02:22:09;;;;;;;2.60;1.02;;;;;16.60;100803.00;;;;5066984;28;20488;-77
2021/09/07 02:24:38;;;;;;;5.63;1.17;;;;;16.60;100820.00;;;;5066472;28;20774;-79
2021/09/07 02:27:07;;;;;;;4.35;1.17;;;;;16.60;100812.00;;;;5066599;28;20500;-76
2021/09/07 02:29:36;;;;;;;5.68;1.15;;;;;16.70;100818.00;;;;5065400;28;20521;-77
2021/09/07 02:32:07;;;;;;;4.78;1.05;;;;;16.80;100812.00;;;;5066931;28;20049;-75
2021/09/07 02:34:36;;;;;;;4.03;1.20;;;;;16.80;100773.00;;;;5066488;28;20757;-77
2021/09/07 02:37:05;;;;;;;2.75;1.27;;;;;16.90;100780.00;;;;5066403;28;20051;-77
2021/09/07 02:39:34;;;;;;;3.45;1.30;;;;;16.90;100750.00;;;;5067449;28;20055;-76
2021/09/07 02:42:04;;;;;;;4.88;1.33;;;;;16.80;100773.00;;;;5066379;28;20052;-75
2021/09/07 02:44:33;;;;;;;11.25;1.55;;;;;16.70;100762.00;;;;5066241;28;20701;-77
2021/09/07 02:47:03;;;;;;;5.80;1.15;;;;;16.60;100773.00;;;;5066015;28;20052;-76
2021/09/07 02:49:32;;;;;;;3.33;1.40;;;;;16.50;100755.00;;;;5066729;28;20071;-77
2021/09/07 02:52:01;;;;;;;4.40;1.52;;;;;16.50;100768.00;;;;5066058;28;20505;-77
2021/09/07 02:54:30;;;;;;;2.45;1.35;;;;;16.60;100746.00;;;;5066345;28;20045;-78
2021/09/07 02:56:59;;;;;;;2.90;1.30;;;;;16.70;100732.00;;;;5065729;28;20044;-76
2021/09/07 02:59:27;;;;;;;5.03;1.50;;;;;16.80;100722.00;;;;5065930;28;20048;-76
2021/09/07 03:01:56;;;;;;;3.25;1.40;;;;;16.80;100684.00;;;;5066275;28;20526;-77
2021/09/07 03:04:26;;;;;;;3.00;1.27;;;;;16.80;100684.00;;;;5066310;28;20048;-76
2021/09/07 03:06:55;;;;;;;4.97;1.60;;;;;16.90;100712.00;;;;5065963;28;20594;-77
2021/09/07 03:09:24;;;;;;;2.72;1.50;;;;;16.90;100734.00;;;;5065883;28;20525;-76
2021/09/07 03:11:53;;;;;;;3.10;1.23;;;;;16.90;100737.00;;;;5065739;28;20056;-77
2021/09/07 03:14:22;;;;;;;4.00;1.60;;;;;16.90;100698.00;;;;5066505;28;20066;-76
2021/09/07 03:16:51;;;;;;;3.55;1.58;;;;;17.00;100687.00;;;;5066196;28;20412;-79
2021/09/07 03:19:20;;;;;;;5.63;1.73;;;;;17.20;100683.00;;;;5065961;28;20053;-75
2021/09/07 03:21:49;;;;;;;2.58;1.50;;;;;17.20;100666.00;;;;5065858;28;20060;-76
2021/09/07 03:24:18;;;;;;;2.95;1.75;;;;;17.20;100651.00;;;;5065772;28;20056;-75
2021/09/07 03:26:47;;;;;;;3.50;1.63;;;;;17.20;100635.00;;;;5066269;28;20081;-77
2021/09/07 03:29:16;;;;;;;2.10;1.63;;;;;17.50;100650.00;;;;5065994;28;20048;-76
2021/09/07 03:31:45;;;;;;;2.83;1.85;;;;;17.50;100644.00;;;;5066413;28;20056;-76
2021/09/07 03:34:14;;;;;;;4.63;2.10;;;;;17.60;100611.00;;;;5066242;28;20048;-75
2021/09/07 03:36:43;;;;;;;3.55;2.00;;;;;17.60;100635.00;;;;5066084;28;20055;-75
2021/09/07 03:39:12;;;;;;;6.20;2.05;;;;;17.50;100691.00;;;;5065314;28;20049;-74
2021/09/07 03:41:40;;;;;;;5.97;2.83;;;;;17.30;100728.00;;;;5065815;28;20049;-76
2021/09/07 03:44:09;;;;;;;3.40;2.78;;;;;17.20;100706.00;;;;5065513;28;20040;-75
2021/09/07 03:46:38;;;;;;;3.35;2.42;;;;;17.20;100669.00;;;;5064606;28;20728;-76
2021/09/07 03:49:07;;;;;;;5.40;3.10;;;;;17.20;100647.00;;;;5066385;28;20044;-76
2021/09/07 03:51:36;;;;;;;4.97;2.80;;;;;17.10;100632.00;;;;5065184;28;20052;-76
2021/09/07 03:54:05;;;;;;;7.20;2.83;;;;;17.00;100611.00;;;;5065955;28;20052;-75
2021/09/07 03:56:35;;;;;;;7.85;3.00;;;;;17.00;100615.00;;;;5065401;28;20512;-76
2021/09/07 03:59:05;;;;;;;5.53;3.17;;;;;17.00;100606.00;;;;5065699;28;20571;-77
2021/09/07 04:01:34;;;;;;;5.20;2.60;;;;;16.90;100597.00;;;;5065560;28;20040;-77
2021/09/07 04:04:04;;;;;;;6.78;3.63;;;;;16.90;100554.00;;;;5065454;28;20055;-77
2021/09/07 04:06:33;;;;;;;3.55;2.97;;;;;17.00;100546.00;;;;5063914;28;20089;-77
2021/09/07 04:09:02;;;;;;;3.58;2.78;;;;;17.00;100537.00;;;;5069471;28;20579;-77
2021/09/07 04:11:31;;;;;;;4.60;2.72;;;;;17.00;100545.00;;;;5069338;28;20495;-76
2021/09/07 04:14:00;;;;;;;3.85;2.80;;;;;16.90;100545.00;;;;5069650;28;20057;-76
2021/09/07 04:16:29;;;;;;;4.13;2.97;;;;;16.90;100514.00;;;;5068984;28;20139;-77
2021/09/07 04:18:58;;;;;;;3.78;2.53;;;;;16.90;100517.00;;;;5069519;28;20087;-76
2021/09/07 04:21:27;;;;;;;5.47;2.67;;;;;16.90;100545.00;;;;5069279;28;20058;-77
2021/09/07 04:23:56;;;;;;;3.42;3.00;;;;;16.90;100529.00;;;;5069988;28;20052;-77
2021/09/07 04:26:25;;;;;;;4.03;2.95;;;;;16.90;100532.00;;;;5068681;28;20057;-78
2021/09/07 04:28:54;;;;;;;5.70;3.03;;;;;16.90;100518.00;;;;5068491;28;20525;-77
2021/09/07 04:31:23;;;;;;;4.05;2.80;;;;;16.90;100505.00;;;;5068870;28;20567;-76
2021/09/07 04:33:53;;;;;;;3.58;2.83;;;;;17.10;100512.00;;;;5068828;28;20041;-77
2021/09/07 04:36:21;;;;;;;8.65;3.10;;;;;17.00;100538.00;;;;5068947;28;20044;-77
2021/09/07 04:38:50;;;;;;;4.10;2.80;;;;;17.00;100482.00;;;;5068515;28;20508;-78
2021/09/07 04:41:19;;;;;;;5.97;2.70;;;;;17.00;100522.00;;;;5067610;28;20048;-77
2021/09/07 04:43:48;;;;;;;2.97;2.38;;;;;17.00;100497.00;;;;5068798;28;20048;-78
2021/09/07 04:46:18;;;;;;;5.20;2.70;;;;;17.10;100494.00;;;;5068759;28;20056;-76
2021/09/07 04:48:50;;;;;;;4.00;2.20;;;;;17.20;100491.00;;;;5069073;28;20053;-75
2021/09/07 04:51:19;;;;;;;4.40;3.03;;;;;17.20;100476.00;;;;5068508;28;20147;-77
2021/09/07 04:53:48;;;;;;;3.50;2.72;;;;;17.20;100490.00;;;;5068759;28;20059;-76
2021/09/07 04:56:20;;;;;;;4.18;2.88;;;;;17.10;100437.00;;;;5068076;28;20095;-76
2021/09/07 04:58:49;;;;;;;3.22;2.92;;;;;17.10;100447.00;;;;5069188;28;20056;-77
2021/09/07 05:01:19;;;;;;;7.05;2.97;;;;;17.10;100431.00;;;;5068366;28;20059;-76
2021/09/07 05:03:48;;;;;;;4.22;2.90;;;;;17.10;100436.00;;;;5068380;28;20060;-76
2021/09/07 05:06:17;;;;;;;5.53;2.63;;;;;17.00;100413.00;;;;5067777;28;20052;-75
2021/09/07 05:08:46;;;;;;;3.60;2.35;;;;;17.00;100432.00;;;;5067502;28;20408;-75
2021/09/07 05:11:15;;;;;;;3.63;2.25;;;;;17.00;100404.00;;;;5068509;28;20051;-76
2021/09/07 05:13:44;;;;;;;5.35;2.55;;;;;17.10;100396.00;;;;5068036;28;20401;-77
2021/09/07 05:16:13;;;;;;;2.88;2.05;;;;;17.10;100381.00;;;;5068156;28;20045;-78
2021/09/07 05:18:42;;;;;;;3.05;2.05;;;;;17.10;100404.00;;;;5067913;28;20140;-76
2021/09/07 05:21:11;;;;;;;2.80;2.25;;;;;17.10;100392.00;;;;5066140;28;20507;-77
2021/09/07 05:23:40;;;;;;;6.30;2.30;;;;;17.10;100397.00;;;;5067711;28;20499;-75
2021/09/07 05:26:09;;;;;;;2.50;2.20;;;;;17.10;100448.00;;;;5067717;28;20049;-78
2021/09/07 05:28:38;;;;;;;3.50;2.67;;;;;17.10;100463.00;;;;5068031;28;20051;-77
2021/09/07 05:31:17;;;;;;;4.90;2.88;;;;;17.10;100509.00;;;;5067868;28;20051;-76
2021/09/07 05:33:46;;;;;;;5.32;2.90;;;;;17.10;100533.00;;;;5067856;28;20483;-77
2021/09/07 05:36:15;;;;;;;5.93;2.70;;;;;17.00;100528.00;;;;5067715;28;20044;-77
2021/09/07 05:38:44;;;;;;;4.57;2.67;;;;;16.60;100520.00;;;;5067621;28;20500;-78
2021/09/07 05:41:13;;;;;;;5.10;2.40;;;;;16.30;100483.00;;;;5067789;28;20452;-77
2021/09/07 05:43:44;;;;;;;7.68;2.70;;;;;16.20;100490.00;;;;5067333;28;20048;-79
2021/09/07 05:46:13;;;;;;;6.65;3.45;;;;;16.00;100440.00;;;;5067085;28;20495;-77
2021/09/07 05:48:42;;;;;;;7.80;3.83;;;;;15.90;100419.00;;;;5068254;28;20055;-78
2021/09/07 05:51:11;;;;;;;10.68;3.92;;;;;15.90;100399.00;;;;5067618;28;20162;-79
2021/09/07 05:53:40;;;;;;;6.70;3.28;;;;;15.80;100337.00;;;;5064623;28;20520;-79
2021/09/07 05:56:10;;;;;;;9.00;3.63;;;;;15.80;100336.00;;;;5067386;28;20106;-77
2021/09/07 05:58:39;;;;;;;4.63;2.97;;;;;15.70;100339.00;;;;5065654;28;20048;-77
2021/09/07 06:01:12;;;;;;;8.68;3.42;;;;;15.70;100349.00;;;;5066974;28;20079;-79
2021/09/07 06:03:41;;;;;;;9.27;3.15;;;;;15.70;100369.00;;;;5067348;28;20431;-78
2021/09/07 06:06:10;;;;;;;7.40;3.17;;;;;15.70;100391.00;;;;5065372;28;20052;-77
2021/09/07 06:08:40;;;;;;;6.57;3.80;;;;;15.70;100416.00;;;;5067070;28;20422;-78
2021/09/07 06:11:10;;;;;;;11.82;3.75;;;;;15.80;100395.00;;;;5066046;28;20056;-77
2021/09/07 06:13:38;;;;;;;13.20;3.92;;;;;15.70;100402.00;;;;5067641;28;20131;-78
2021/09/07 06:16:07;;;;;;;8.88;4.22;;;;;15.70;100400.00;;;;5067042;28;20040;-76
2021/09/07 06:18:36;;;;;;;8.73;3.47;;;;;15.60;100402.00;;;;5066798;28;20040;-79
2021/09/07 06:21:05;;;;;;;6.38;3.67;;;;;15.60;100424.00;;;;5066727;28;20051;-77
2021/09/07 06:23:34;;;;;;;11.90;4.32;;;;;15.70;100400.00;;;;5066198;28;20052;-78
2021/09/07 06:26:03;;;;;;;8.60;4.35;;;;;15.70;100378.00;;;;5066499;28;20052;-79
2021/09/07 06:28:32;;;;;;;9.68;4.60;;;;;15.60;100354.00;;;;5066539;28;20060;-80
2021/09/07 06:31:01;;;;;;;7.22;3.75;;;;;15.70;100293.00;;;;5065944;28;20045;-78
2021/09/07 06:33:30;;;;;;;9.75;4.15;;;;;15.70;100227.00;;;;5067326;28;20052;-77
2021/09/07 06:35:59;;;;;;;8.75;3.63;;;;;15.70;100213.00;;;;5066503;28;20051;-78
2021/09/07 06:38:28;;;;;;;3.58;2.72;;;;;15.80;100199.00;;;;5066541;28;20052;-78
2021/09/07 06:40:57;;;;;;;9.20;3.63;;;;;15.80;100238.00;;;;5066757;28;20049;-79
2021/09/07 06:43:26;;;;;;;6.22;3.63;;;;;15.60;100251.00;;;;5066141;28;20071;-77
2021/09/07 06:45:55;;;;;;;10.10;3.63;;;;;15.60;100249.00;;;;5065898;28;20074;-80
2021/09/07 06:48:24;;;;;;;8.40;3.58;;;;;15.50;100270.00;;;;5066029;28;20144;-79
2021/09/07 06:50:53;;;;;;;7.60;4.72;;;;;15.50;100293.00;;;;5066561;28;20503;-77
2021/09/07 06:53:24;;;;;;;7.05;4.32;;;;;15.50;100286.00;;;;5064650;28;20048;-76
2021/09/07 06:55:53;;;;;;;10.80;4.72;;;;;15.50;100275.00;;;;5065580;28;20507;-81
2021/09/07 06:58:22;;;;;;;7.55;4.43;;;;;15.50;100261.00;;;;5066367;28;20047;-79
2021/09/07 07:00:51;;;;;;;8.73;4.50;;;;;15.50;100281.00;;;;5064569;28;20055;-79
2021/09/07 07:03:20;;;;;;;7.25;4.82;;;;;15.40;100273.00;;;;5064682;28;20476;-76
2021/09/07 07:05:49;;;;;;;10.48;4.78;;;;;15.40;100278.00;;;;5066066;28;20056;-79
2021/09/07 07:08:18;;;;;;;10.40;4.68;;;;;15.40;100279.00;;;;5066349;28;20061;-77
2021/09/07 07:10:47;;;;;;;9.02;4.32;;;;;15.40;100294.00;;;;5066733;28;20045;-79
2021/09/07 07:13:16;;;;;;;9.73;4.65;;;;;15.40;100305.00;;;;5066002;28;20048;-78
2021/09/07 07:15:45;;;;;;;5.20;4.63;;;;;15.40;100281.00;;;;5065602;28;20159;-76
2021/09/07 07:18:14;;;;;;;7.97;4.85;;;;;15.40;100305.00;;;;5066305;28;20048;-78
2021/09/07 07:20:43;;;;;;;8.45;5.25;;;;;15.50;100287.00;;;;5065802;28;20053;-78
2021/09/07 07:23:12;;;;;;;9.20;5.38;;;;;15.60;100277.00;;;;5065882;28;20052;-76
2021/09/07 07:25:42;;;;;;;7.78;5.13;;;;;15.60;100294.00;;;;5066149;28;20056;-79
2021/09/07 07:28:11;;;;;;;6.10;5.50;;;;;15.70;100317.00;;;;5065832;28;20048;-77
2021/09/07 07:30:40;;;;;;;9.32;5.03;;;;;15.90;100383.00;;;;5065995;28;20458;-77
2021/09/07 07:33:09;;;;;;;7.63;5.13;;;;;16.00;100404.00;;;;5065761;28;20080;-77
2021/09/07 07:35:38;;;;;;;6.65;4.50;;;;;16.10;100402.00;;;;5065879;28;20044;-77
2021/09/07 07:38:08;;;;;;;10.55;4.85;;;;;16.00;100358.00;;;;5065886;28;20055;-76
2021/09/07 07:40:37;;;;;;;8.65;4.80;;;;;15.80;100333.00;;;;5065874;28;20049;-76
2021/09/07 07:43:06;;;;;;;6.07;4.80;;;;;15.90;100364.00;;;;5068700;28;20049;-76
2021/09/07 07:45:35;;;;;;;6.45;4.90;;;;;16.00;100348.00;;;;5070413;28;20567;-76
2021/09/07 07:48:05;;;;;;;7.38;5.10;;;;;16.00;100313.00;;;;5069970;28;20056;-76
2021/09/07 07:50:36;;;;;;;8.35;5.05;;;;;16.00;100338.00;;;;5069940;28;20044;-77
2021/09/07 07:53:05;;;;;;;9.77;4.90;;;;;15.90;100314.00;;;;5069099;28;20041;-77
2021/09/07 07:55:34;;;;;;;7.78;5.15;;;;;15.90;100232.00;;;;5068882;28;20048;-77
2021/09/07 07:58:15;;;;;;;8.00;5.28;;;;;15.80;100212.00;;;;5069506;28;20098;-77
2021/09/07 08:00:46;;;;;;;8.27;5.43;;;;;15.80;100204.00;;;;5068010;28;20041;-78
2021/09/07 08:03:15;;;;;;;8.30;5.10;;;;;15.80;100215.00;;;;5069782;28;20155;-78
2021/09/07 08:05:44;;;;;;;4.85;4.45;;;;;15.90;100247.00;;;;5069131;28;20499;-77
2021/09/07 08:08:13;;;;;;;6.85;5.53;;;;;16.00;100271.00;;;;5068047;28;20689;-80
2021/09/07 08:10:42;;;;;;;5.78;5.18;;;;;15.90;100255.00;;;;5069029;28;20045;-78
2021/09/07 08:13:13;;;;;;;6.80;4.75;;;;;15.80;100270.00;;;;5069074;28;20048;-77
2021/09/07 08:15:42;;;;;;;9.48;5.53;;;;;15.80;100266.00;;;;5069160;28;20080;-79
2021/09/07 08:18:11;;;;;;;11.82;5.63;;;;;15.70;100299.00;;;;5069109;28;20496;-77
2021/09/07 08:20:42;;;;;;;8.52;5.97;;;;;15.70;100309.00;;;;5069888;28;20427;-79
2021/09/07 08:23:11;;;;;;;;;;;;;15.60;100322.00;;;;5069820;28;20423;-78
2021/09/07 08:25:40;;;;;;;9.85;5.85;;;;;15.60;100330.00;;;;5069888;28;19924;-80
2021/09/07 08:28:09;;;;;;;7.32;5.90;;;;;15.80;100365.00;;;;5068995;28;20070;-77
2021/09/07 08:30:38;;;;;;;7.15;4.97;;;;;15.90;100369.00;;;;5069031;28;20054;-79
2021/09/07 08:33:15;;;;;;;7.50;5.20;;;;;16.00;100383.00;;;;5069853;28;20056;-77
2021/09/07 08:35:44;;;;;;;6.68;5.20;;;;;16.10;100372.00;;;;5070175;28;20522;-77
2021/09/07 08:38:13;;;;;;;5.72;4.60;;;;;16.30;100370.00;;;;5070598;28;20050;-78
2021/09/07 08:40:42;;;;;;;6.28;4.43;;;;;16.20;100367.00;;;;5069102;28;20048;-78
2021/09/07 08:43:11;;;;;;;6.97;5.30;;;;;16.20;100391.00;;;;5068371;28;20568;-77
2021/09/07 08:45:41;;;;;;;11.00;5.43;;;;;16.10;100381.00;;;;5068844;28;20056;-78
2021/09/07 08:48:10;;;;;;;6.60;4.93;;;;;16.00;100410.00;;;;5068615;28;20144;-79
2021/09/07 08:50:39;;;;;;;5.60;4.68;;;;;16.00;100420.00;;;;5069232;28;20788;-78
2021/09/07 08:53:08;;;;;;;5.55;5.03;;;;;16.00;100404.00;;;;5068202;28;20060;-78
2021/09/07 08:55:37;;;;;;;8.93;5.28;;;;;15.90;100406.00;;;;5067912;28;20045;-77
2021/09/07 08:58:06;;;;;;;7.75;4.90;;;;;15.90;100398.00;;;;5069159;28;20075;-77
2021/09/07 09:00:35;;;;;;;6.95;4.88;;;;;15.90;100377.00;;;;5068885;28;20049;-78
2021/09/07 09:03:12;;;;;;;6.78;4.43;;;;;15.80;100391.00;;;;5068247;28;20473;-77
2021/09/07 09:05:46;;;;;;;6.55;4.38;;;;;15.90;100385.00;;;;5068508;28;20052;-78
2021/09/07 09:08:17;;;;;;;9.45;4.57;;;;;16.00;100393.00;;;;5067898;28;20052;-75
2021/09/07 09:10:47;;;;;;;8.68;4.43;;;;;16.00;100402.00;;;;5068428;28;20056;-77
2021/09/07 09:13:18;;;;;;;9.88;4.38;;;;;16.10;100364.00;;;;5068081;28;20088;-76
2021/09/07 09:16:05;;;;;;;8.68;4.65;;;;;16.10;100424.00;;;;5069046;28;20048;-78
2021/09/07 09:18:38;;;;;;;6.70;4.10;;;;;16.10;100447.00;;;;5068517;28;20057;-79
2021/09/07 09:21:27;;;;;;;6.55;4.15;;;;;16.10;100470.00;;;;5068114;28;20059;-75
2021/09/07 09:24:17;;;;;;;8.00;3.72;;;;;16.20;100520.00;;;;5066862;28;20052;-77
2021/09/07 09:26:53;;;;;;;6.28;4.63;;;;;16.30;100537.00;;;;5067659;28;20063;-78
2021/09/07 09:29:51;;;;;;;5.72;3.95;;;;;16.30;100506.00;;;;5066431;28;20087;-78
2021/09/07 09:32:24;;;;;;;5.50;3.90;;;;;16.30;100554.00;;;;5067203;28;20783;-78
2021/09/07 09:35:06;;;;;;;8.02;3.88;;;;;16.30;100582.00;;;;5068556;28;20574;-78
2021/09/07 09:37:38;;;;;;;12.27;3.72;;;;;16.30;100582.00;;;;5068019;28;20053;-79
2021/09/07 09:40:09;;;;;;;5.57;3.90;;;;;16.10;100535.00;;;;5068033;28;20045;-77
2021/09/07 09:42:40;;;;;;;7.68;3.97;;;;;15.90;100485.00;;;;5067566;28;20106;-78
2021/09/07 09:45:10;;;;;;;9.75;4.30;;;;;15.80;100465.00;;;;5067332;28;20052;-74
2021/09/07 09:47:42;;;;;;;9.85;4.85;;;;;15.70;100430.00;;;;5066243;28;20061;-77
2021/09/07 09:50:14;;;;;;;9.27;5.43;;;;;15.70;100456.00;;;;5067236;28;20053;-77
2021/09/07 09:52:45;;;;;;;7.75;4.55;;;;;15.60;100479.00;;;;5066867;28;20494;-77
2021/09/07 09:55:16;;;;;;;12.20;5.22;;;;;15.70;100513.00;;;;5067733;28;20049;-74
2021/09/07 09:57:46;;;;;;;15.93;5.22;;;;;15.70;100523.00;;;;5067109;28;20538;-77
2021/09/07 10:00:17;;;;;;;12.88;5.28;;;;;15.60;100529.00;;;;5067017;28;20052;-74
2021/09/07 10:02:46;;;;;;;8.60;4.75;;;;;15.60;100523.00;;;;5067317;28;20073;-77
2021/09/07 10:05:17;;;;;;;11.88;5.10;;;;;15.60;100519.00;;;;5066856;28;20632;-77
2021/09/07 10:08:06;;;;;;;11.10;4.75;;;;;15.60;100497.00;;;;5066934;28;20545;-75
2021/09/07 10:10:37;;;;;;;10.38;5.32;;;;;15.60;100523.00;;;;5066908;28;20518;-77
2021/09/07 10:13:07;;;;;;;;;;;;;15.60;100542.00;;;;5067908;28;20126;-75
2021/09/07 10:15:51;;;;;;;11.75;5.05;;;;;15.60;100522.00;;;;5067694;28;19924;-74
2021/09/07 10:18:41;;;;;;;10.45;5.60;;;;;15.60;100515.00;;;;5067063;28;20129;-74
2021/09/07 10:23:02;;;;;;;12.50;5.57;;;;;15.60;100501.00;;;;5067097;28;20075;-76
2021/09/07 10:26:40;;;;;;;12.93;6.57;;;;;15.60;100579.00;;;;5066923;28;20135;-74
2021/09/07 10:29:13;;;;;;;10.20;5.88;;;;;15.60;100595.00;;;;5067303;28;20071;-76
2021/09/07 10:31:43;;;;;;;13.52;6.15;;;;;15.60;100606.00;;;;5066813;28;20048;-75
2021/09/07 10:34:14;;;;;;;11.55;5.88;;;;;15.50;100608.00;;;;5067208;28;20054;-74
2021/09/07 10:37:07;;;;;;;10.63;5.28;;;;;15.50;100615.00;;;;5067215;28;20048;-77
2021/09/07 10:39:37;;;;;;;16.67;6.07;;;;;15.50;100640.00;;;;5066490;28;20040;-76
2021/09/07 10:42:14;;;;;;;21.73;6.53;;;;;15.50;100661.00;;;;5066683;28;20102;-75
2021/09/07 10:44:58;;;;;;;24.30;8.30;;;;;15.50;100657.00;;;;5065880;28;20431;-76
2021/09/07 10:47:43;;;;;;;20.35;6.22;;;;;15.50;100638.00;;;;5064129;28;20501;-77
2021/09/07 10:50:12;;;;;;;25.83;7.07;;;;;15.50;100638.00;;;;5065060;28;20048;-78
2021/09/07 10:52:41;;;;;;;39.28;7.65;;;;;15.60;100638.00;;;;5066055;28;20519;-77
2021/09/07 10:55:14;;;;;;;12.70;5.65;;;;;15.50;100626.00;;;;5066040;28;20045;-76
2021/09/07 10:57:51;;;;;;;14.65;5.88;;;;;15.60;100577.00;;;;5065412;28;20056;-75
2021/09/07 11:00:20;;;;;;;12.25;5.53;;;;;15.60;100579.00;;;;5066031;28;20143;-77
2021/09/07 11:02:50;;;;;;;11.65;5.38;;;;;15.50;100581.00;;;;5065577;28;20070;-78
2021/09/07 11:05:28;;;;;;;10.48;5.72;;;;;15.50;100607.00;;;;5066668;28;20097;-77
2021/09/07 11:08:12;;;;;;;11.20;5.18;;;;;15.50;100608.00;;;;5066184;28;20052;-75
2021/09/07 11:10:55;;;;;;;9.25;4.90;;;;;15.50;100614.00;;;;5064818;28;20440;-75
2021/09/07 11:13:25;;;;;;;9.73;5.55;;;;;15.60;100609.00;;;;5065994;28;20048;-75
2021/09/07 11:15:57;;;;;;;13.93;5.55;;;;;15.60;100628.00;;;;5066665;28;20109;-77
2021/09/07 11:18:28;;;;;;;13.38;5.45;;;;;15.60;100609.00;;;;5065661;28;20078;-78
2021/09/07 11:20:59;;;;;;;18.30;6.15;;;;;15.60;100592.00;;;;5065285;28;20064;-79
2021/09/07 11:23:34;;;;;;;13.90;5.85;;;;;15.60;100591.00;;;;5065360;28;20056;-77
2021/09/07 11:26:09;;;;;;;11.65;5.88;;;;;15.60;100560.00;;;;5065759;28;20044;-77
2021/09/07 11:28:44;;;;;;;16.08;5.85;;;;;15.60;100570.00;;;;5064814;28;20075;-76
2021/09/07 11:31:13;;;;;;;18.73;6.07;;;;;15.60;100613.00;;;;5065473;28;20057;-76
2021/09/07 11:33:44;;;;;;;12.57;6.15;;;;;15.60;100639.00;;;;5065886;28;20052;-77
2021/09/07 11:36:16;;;;;;;13.40;7.13;;;;;15.70;100647.00;;;;5065422;28;20048;-80
2021/09/07 11:38:48;;;;;;;15.48;6.97;;;;;15.70;100650.00;;;;5065825;28;20496;-75
2021/09/07 11:41:20;;;;;;;14.40;6.97;;;;;15.70;100658.00;;;;5065701;28;20052;-78
2021/09/07 11:43:50;;;;;;;;;;;;;15.70;100666.00;;;;5065934;28;20062;-77
2021/09/07 11:46:23;;;;;;;15.55;6.03;;;;;15.70;100673.00;;;;5064708;28;19924;-78
2021/09/07 11:48:55;;;;;;;23.33;6.53;;;;;15.70;100655.00;;;;5065620;28;20045;-77
2021/09/07 11:51:31;;;;;;;14.43;6.60;;;;;15.80;100679.00;;;;5065541;28;20072;-76
2021/09/07 11:54:03;;;;;;;13.68;6.40;;;;;15.80;100651.00;;;;5065334;28;20068;-77
2021/09/07 11:56:35;;;;;;;15.93;6.15;;;;;15.80;100644.00;;;;5064946;28;20045;-75
2021/09/07 11:59:17;;;;;;;21.48;6.72;;;;;15.80;100655.00;;;;5065243;28;20080;-76
2021/09/07 12:01:52;;;;;;;;;;;;;15.70;100618.00;;;;5065269;28;20056;-78
2021/09/07 12:04:23;;;;;;;11.07;5.97;;;;;15.80;100554.00;;;;5065176;28;19924;-76
2021/09/07 12:06:53;;;;;;;11.23;5.95;;;;;15.70;100535.00;;;;5065545;28;20052;-76
2021/09/07 12:09:30;;;;;;;13.80;6.22;;;;;15.70;100510.00;;;;5064714;28;20040;-76
2021/09/07 12:12:09;;;;;;;34.78;28.65;;;;;15.70;100536.00;;;;5065018;28;20521;-77
2021/09/07 12:14:46;;;;;;;13.07;7.65;;;;;15.70;100553.00;;;;5065217;28;20083;-76
2021/09/07 12:17:21;;;;;;;17.27;7.47;;;;;15.60;100582.00;;;;5064947;28;20041;-77
2021/09/07 12:19:53;;;;;;;14.95;7.10;;;;;15.70;100564.00;;;;5065707;28;20045;-76
2021/09/07 12:22:24;;;;;;;18.85;6.63;;;;;15.70;100590.00;;;;5065783;28;20048;-79
2021/09/07 12:25:12;;;;;;;24.70;8.02;;;;;15.70;100576.00;;;;5066450;28;20503;-74
2021/09/07 12:27:46;;;;;;;25.50;9.65;;;;;15.80;100616.00;;;;5064444;28;20044;-75